Time,TemperatureF,DewpointF,PressureIn,WindDirection,WindDirectionDegrees,WindSpeedMPH,WindSpeedGustMPH,Humidity,HourlyPrecipIn,Conditions,Clouds,dailyrainin,SolarRadiationWatts/m^2,SoftwareType,DateUTC
2013-05-10 00:14:00,55.2,54.0,29.93,SSW,198,1.0,1.0,97,0.00,,,0.00,0,weatherlink.com 1.10,2013-05-10 04:14:00,
2013-05-10 00:29:00,55.3,55.0,29.93,SSW,198,0.0,0.0,97,0.00,,,0.00,0,weatherlink.com 1.10,2013-05-10 04:29:00,
2013-05-10 00:44:00,55.4,55.0,29.93,SSW,198,0.0,0.0,97,0.00,,,0.00,0,weatherlink.com 1.10,2013-05-10 04:44:00,
2013-05-10 00:59:00,55.3,54.0,29.93,SSW,198,0.0,0.0,96,0.00,,,0.00,0,weatherlink.com 1.10,2013-05-10 04:59:00,
2013-05-10 01:14:00,55.1,54.0,29.93,SSW,198,1.0,2.0,97,0.00,,,0.00,0,weatherlink.com 1.10,2013-05-10 05:14:00,
2013-05-10 01:29:00,55.2,54.0,29.93,SSW,198,1.0,4.0,97,0.00,,,0.00,0,weatherlink.com 1.10,2013-05-10 05:29:00,
2013-05-10 01:44:00,55.1,54.0,29.92,SSW,198,3.0,4.0,97,0.00,,,0.00,0,weatherlink.com 1.10,2013-05-10 05:44:00,
2013-05-10 01:59:00,54.9,54.0,29.93,SSW,198,1.0,3.0,97,0.00,,,0.00,0,weatherlink.com 1.10,2013-05-10 05:59:00,
2013-05-10 02:14:00,54.7,54.0,29.93,SSW,198,2.0,4.0,98,0.00,,,0.00,0,weatherlink.com 1.10,2013-05-10 06:14:00,
2013-05-10 02:29:00,54.5,54.0,29.93,SSW,198,2.0,3.0,98,0.00,,,0.00,0,weatherlink.com 1.10,2013-05-10 06:29:00,
2013-05-10 02:44:00,54.4,54.0,29.92,SSW,198,2.0,3.0,98,0.00,,,0.00,0,weatherlink.com 1.10,2013-05-10 06:44:00,
2013-05-10 02:59:00,54.3,54.0,29.93,SSW,198,0.0,3.0,98,0.00,,,0.00,0,weatherlink.com 1.10,2013-05-10 06:59:00,
2013-05-10 03:14:00,54.3,54.0,29.93,SSW,198,1.0,4.0,98,0.00,,,0.00,0,weatherlink.com 1.10,2013-05-10 07:14:00,
2013-05-10 03:29:00,54.1,54.0,29.92,SSW,198,1.0,5.0,98,0.00,,,0.00,0,weatherlink.com 1.10,2013-05-10 07:29:00,
2013-05-10 03:44:00,54.1,54.0,29.93,SSW,198,1.0,4.0,98,0.00,,,0.00,0,weatherlink.com 1.10,2013-05-10 07:44:00,
2013-05-10 03:59:00,54.0,54.0,29.92,SSW,198,3.0,5.0,98,0.00,,,0.00,0,weatherlink.com 1.10,2013-05-10 07:59:00,
2013-05-10 04:14:00,54.0,54.0,29.92,SSW,198,4.0,5.0,99,0.00,,,0.00,0,weatherlink.com 1.10,2013-05-10 08:14:00,
2013-05-10 04:29:00,54.0,54.0,29.93,SSW,199,4.0,6.0,99,0.00,,,0.00,0,weatherlink.com 1.10,2013-05-10 08:29:00,
2013-05-10 04:44:00,54.1,54.0,29.93,SSW,201,2.0,5.0,99,0.00,,,0.00,0,weatherlink.com 1.10,2013-05-10 08:44:00,
2013-05-10 04:59:00,54.1,54.0,29.93,SSW,210,3.0,7.0,99,0.00,,,0.00,0,weatherlink.com 1.10,2013-05-10 08:59:00,
2013-05-10 05:14:00,54.2,54.0,29.93,WSW,245,5.0,10.0,99,0.00,,,0.00,0,weatherlink.com 1.10,2013-05-10 09:14:00,
2013-05-10 05:29:00,54.2,54.0,29.94,West,269,4.0,10.0,99,0.00,,,0.00,5,weatherlink.com 1.10,2013-05-10 09:29:00,
2013-05-10 05:44:00,54.1,54.0,29.94,West,269,4.0,7.0,99,0.00,,,0.00,23,weatherlink.com 1.10,2013-05-10 09:44:00,
2013-05-10 05:59:00,53.9,54.0,29.95,West,269,2.0,7.0,99,0.00,,,0.00,28,weatherlink.com 1.10,2013-05-10 09:59:00,
2013-05-10 06:14:00,53.9,54.0,29.95,West,269,4.0,6.0,99,0.00,,,0.00,35,weatherlink.com 1.10,2013-05-10 10:14:00,
2013-05-10 06:29:00,54.3,54.0,29.95,West,269,4.0,8.0,99,0.00,,,0.00,79,weatherlink.com 1.10,2013-05-10 10:29:00,
2013-05-10 06:44:00,54.9,55.0,29.95,West,269,5.0,7.0,99,0.00,,,0.00,83,weatherlink.com 1.10,2013-05-10 10:44:00,
2013-05-10 06:59:00,55.8,55.0,29.95,West,269,1.0,3.0,96,0.00,,,0.00,204,weatherlink.com 1.10,2013-05-10 10:59:00,
2013-05-10 07:14:00,55.9,54.0,29.95,West,269,0.0,4.0,94,0.00,,,0.00,176,weatherlink.com 1.10,2013-05-10 11:14:00,
2013-05-10 07:29:00,57.4,55.0,29.96,West,269,0.0,1.0,92,0.00,,,0.00,301,weatherlink.com 1.10,2013-05-10 11:29:00,
2013-05-10 07:44:00,56.9,55.0,29.96,West,269,5.0,5.0,93,0.00,,,0.00,262,weatherlink.com 1.10,2013-05-10 11:44:00,
2013-05-10 08:00:00,55.7,54.0,29.97,WNW,287,8.0,10.0,95,0.00,,,0.00,334,weatherlink.com 1.10,2013-05-10 12:00:00,
2013-05-10 08:15:00,57.1,55.0,29.97,WNW,289,2.0,7.0,92,0.00,,,0.00,436,weatherlink.com 1.10,2013-05-10 12:15:00,
2013-05-10 08:30:00,58.6,55.0,29.97,WNW,289,5.0,5.0,89,0.00,,,0.00,480,weatherlink.com 1.10,2013-05-10 12:30:00,
2013-05-10 08:45:00,57.9,55.0,29.98,WNW,294,6.0,11.0,90,0.00,,,0.00,531,weatherlink.com 1.10,2013-05-10 12:45:00,
2013-05-10 09:00:00,59.0,56.0,29.97,WNW,290,4.0,12.0,89,0.00,,,0.00,606,weatherlink.com 1.10,2013-05-10 13:00:00,
2013-05-10 09:15:00,60.2,56.0,29.97,West,281,3.0,9.0,87,0.00,,,0.00,652,weatherlink.com 1.10,2013-05-10 13:15:00,
2013-05-10 09:30:00,60.7,56.0,29.97,WNW,296,4.0,12.0,85,0.00,,,0.00,679,weatherlink.com 1.10,2013-05-10 13:30:00,
2013-05-10 09:45:00,61.6,56.0,29.97,NW,306,3.0,14.0,82,0.00,,,0.00,671,weatherlink.com 1.10,2013-05-10 13:45:00,
2013-05-10 10:00:00,63.9,57.0,29.97,NW,319,3.0,9.0,79,0.00,,,0.00,715,weatherlink.com 1.10,2013-05-10 14:00:00,
2013-05-10 10:15:00,63.8,56.0,29.97,NW,321,3.0,8.0,76,0.00,,,0.00,751,weatherlink.com 1.10,2013-05-10 14:15:00,
2013-05-10 10:30:00,65.0,55.0,29.97,NW,320,0.0,5.0,71,0.00,,,0.00,782,weatherlink.com 1.10,2013-05-10 14:30:00,
2013-05-10 10:45:00,64.5,55.0,29.97,NW,309,2.0,9.0,72,0.00,,,0.00,807,weatherlink.com 1.10,2013-05-10 14:45:00,
2013-05-10 11:00:00,67.3,55.0,29.97,NW,309,0.0,8.0,65,0.00,,,0.00,835,weatherlink.com 1.10,2013-05-10 15:00:00,
2013-05-10 11:15:00,67.7,55.0,29.97,NW,308,1.0,4.0,65,0.00,,,0.00,888,weatherlink.com 1.10,2013-05-10 15:15:00,
2013-05-10 11:30:00,70.1,55.0,29.97,NW,308,1.0,5.0,60,0.00,,,0.00,904,weatherlink.com 1.10,2013-05-10 15:30:00,
2013-05-10 11:45:00,67.9,56.0,29.97,North,10,6.0,9.0,67,0.00,,,0.00,248,weatherlink.com 1.10,2013-05-10 15:45:00,
2013-05-10 12:00:00,67.9,56.0,29.97,North,10,5.0,10.0,67,0.00,,,0.00,199,weatherlink.com 1.10,2013-05-10 16:00:00,
2013-05-10 12:15:00,69.5,56.0,29.96,North,10,2.0,6.0,62,0.00,,,0.00,939,weatherlink.com 1.10,2013-05-10 16:15:00,
2013-05-10 12:30:00,69.2,55.0,29.96,WNW,284,3.0,9.0,62,0.00,,,0.00,956,weatherlink.com 1.10,2013-05-10 16:30:00,
2013-05-10 12:45:00,70.1,54.0,29.96,West,265,1.0,11.0,56,0.00,,,0.00,991,weatherlink.com 1.10,2013-05-10 16:45:00,
2013-05-10 13:00:00,71.0,55.0,29.96,WSW,246,2.0,10.0,58,0.00,,,0.00,246,weatherlink.com 1.10,2013-05-10 17:00:00,
2013-05-10 13:15:00,70.7,56.0,29.95,WSW,246,4.0,5.0,59,0.00,,,0.00,1049,weatherlink.com 1.10,2013-05-10 17:15:00,
2013-05-10 13:30:00,71.4,56.0,29.95,NE,50,1.0,9.0,58,0.00,,,0.00,1062,weatherlink.com 1.10,2013-05-10 17:30:00,
2013-05-10 13:45:00,68.7,55.0,29.95,ENE,57,2.0,8.0,61,0.00,,,0.00,125,weatherlink.com 1.10,2013-05-10 17:45:00,
2013-05-10 14:00:00,63.7,57.0,29.96,NNW,340,3.0,16.0,79,0.01,,,0.01,197,weatherlink.com 1.10,2013-05-10 18:00:00,
2013-05-10 14:15:00,62.9,59.0,29.95,NNW,340,0.0,4.0,87,0.01,,,0.01,236,weatherlink.com 1.10,2013-05-10 18:15:00,
2013-05-10 14:30:00,64.5,61.0,29.95,NNW,340,2.0,3.0,88,0.01,,,0.01,380,weatherlink.com 1.10,2013-05-10 18:30:00,
2013-05-10 14:45:00,66.6,58.0,29.95,NNW,340,1.0,2.0,74,0.01,,,0.01,578,weatherlink.com 1.10,2013-05-10 18:45:00,
2013-05-10 15:01:00,69.3,56.0,29.95,NNW,340,0.0,5.0,62,0.00,,,0.01,612,weatherlink.com 1.10,2013-05-10 19:01:00,
2013-05-10 15:16:00,70.4,58.0,29.94,North,355,2.0,7.0,66,0.00,,,0.01,886,weatherlink.com 1.10,2013-05-10 19:16:00,
2013-05-10 15:31:00,71.6,58.0,29.94,North,355,0.0,7.0,62,0.00,,,0.01,823,weatherlink.com 1.10,2013-05-10 19:31:00,
2013-05-10 15:46:00,71.4,56.0,29.94,North,5,2.0,8.0,59,0.00,,,0.01,838,weatherlink.com 1.10,2013-05-10 19:46:00,
2013-05-10 16:01:00,70.3,56.0,29.94,NE,46,2.0,6.0,60,0.00,,,0.01,265,weatherlink.com 1.10,2013-05-10 20:01:00,
2013-05-10 16:16:00,68.6,55.0,29.94,ENE,61,4.0,7.0,63,0.00,,,0.01,207,weatherlink.com 1.10,2013-05-10 20:16:00,
2013-05-10 16:31:00,68.6,54.0,29.94,ENE,62,3.0,7.0,59,0.00,,,0.01,246,weatherlink.com 1.10,2013-05-10 20:31:00,
2013-05-10 16:46:00,69.0,54.0,29.94,ENE,62,2.0,5.0,60,0.00,,,0.01,274,weatherlink.com 1.10,2013-05-10 20:46:00,
2013-05-10 17:01:00,69.0,55.0,29.94,ENE,62,4.0,7.0,62,0.00,,,0.01,253,weatherlink.com 1.10,2013-05-10 21:01:00,
2013-05-10 17:16:00,69.0,55.0,29.94,ENE,64,3.0,8.0,61,0.00,,,0.01,165,weatherlink.com 1.10,2013-05-10 21:16:00,
2013-05-10 17:31:00,68.8,56.0,29.93,ENE,66,3.0,8.0,63,0.00,,,0.01,116,weatherlink.com 1.10,2013-05-10 21:31:00,
2013-05-10 17:46:00,68.1,57.0,29.93,ENE,66,0.0,7.0,67,0.00,,,0.01,39,weatherlink.com 1.10,2013-05-10 21:46:00,
2013-05-10 18:01:00,67.3,58.0,29.93,East,92,5.0,11.0,71,0.00,,,0.01,42,weatherlink.com 1.10,2013-05-10 22:01:00,
2013-05-10 18:16:00,66.4,58.0,29.92,SE,128,4.0,12.0,75,0.00,,,0.01,60,weatherlink.com 1.10,2013-05-10 22:16:00,
2013-05-10 18:31:00,65.7,58.0,29.92,SSE,150,5.0,13.0,75,0.00,,,0.01,60,weatherlink.com 1.10,2013-05-10 22:31:00,
2013-05-10 18:46:00,65.0,57.0,29.93,SSE,161,6.0,11.0,76,0.00,,,0.01,76,weatherlink.com 1.10,2013-05-10 22:46:00,
2013-05-10 19:01:00,64.4,57.0,29.93,SSE,155,5.0,12.0,76,0.00,,,0.01,19,weatherlink.com 1.10,2013-05-10 23:01:00,
2013-05-10 19:16:00,64.1,56.0,29.93,South,171,10.0,15.0,74,0.00,,,0.01,28,weatherlink.com 1.10,2013-05-10 23:16:00,
2013-05-10 19:31:00,63.5,56.0,29.93,SSE,149,7.0,15.0,76,0.00,,,0.01,18,weatherlink.com 1.10,2013-05-10 23:31:00,
2013-05-10 19:46:00,63.1,55.0,29.94,South,177,13.0,16.0,75,0.00,,,0.01,5,weatherlink.com 1.10,2013-05-10 23:46:00,
2013-05-10 20:01:00,62.6,55.0,29.93,South,177,12.0,16.0,75,0.00,,,0.01,0,weatherlink.com 1.10,2013-05-11 00:01:00,
2013-05-10 20:16:00,62.2,55.0,29.93,SSE,157,6.0,15.0,76,0.00,,,0.01,0,weatherlink.com 1.10,2013-05-11 00:16:00,
2013-05-10 20:31:00,61.8,55.0,29.93,SSE,150,9.0,15.0,77,0.00,,,0.01,0,weatherlink.com 1.10,2013-05-11 00:31:00,
2013-05-10 20:46:00,61.2,54.0,29.93,SSE,160,12.0,16.0,78,0.00,,,0.01,0,weatherlink.com 1.10,2013-05-11 00:46:00,
2013-05-10 21:01:00,60.9,54.0,29.94,SSE,159,4.0,17.0,79,0.00,,,0.01,0,weatherlink.com 1.10,2013-05-11 01:01:00,
2013-05-10 21:16:00,60.7,55.0,29.93,SSE,166,10.0,19.0,80,0.00,,,0.01,0,weatherlink.com 1.10,2013-05-11 01:16:00,
2013-05-10 21:31:00,60.8,54.0,29.93,SSW,194,14.0,18.0,79,0.00,,,0.01,0,weatherlink.com 1.10,2013-05-11 01:31:00,
2013-05-10 21:46:00,60.5,54.0,29.92,SSE,165,6.0,16.0,80,0.00,,,0.01,0,weatherlink.com 1.10,2013-05-11 01:46:00,
2013-05-10 22:01:00,60.5,55.0,29.93,SSW,194,8.0,17.0,81,0.00,,,0.01,0,weatherlink.com 1.10,2013-05-11 02:01:00,
2013-05-10 22:16:00,60.7,55.0,29.93,SE,138,6.0,19.0,81,0.00,,,0.01,0,weatherlink.com 1.10,2013-05-11 02:16:00,
2013-05-10 22:31:00,60.0,55.0,29.92,SSW,203,2.0,12.0,82,0.00,,,0.01,0,weatherlink.com 1.10,2013-05-11 02:31:00,
2013-05-10 22:46:00,60.0,55.0,29.92,SW,215,7.0,11.0,83,0.00,,,0.01,0,weatherlink.com 1.10,2013-05-11 02:46:00,
2013-05-10 23:01:00,60.0,55.0,29.92,SW,234,7.0,12.0,83,0.00,,,0.01,0,weatherlink.com 1.10,2013-05-11 03:01:00,
2013-05-10 23:16:00,60.5,55.0,29.91,SW,222,3.0,11.0,82,0.00,,,0.01,0,weatherlink.com 1.10,2013-05-11 03:16:00,
2013-05-10 23:31:00,60.5,55.0,29.90,South,181,3.0,12.0,83,0.00,,,0.01,0,weatherlink.com 1.10,2013-05-11 03:31:00,
2013-05-10 23:46:00,61.3,55.0,29.91,West,265,5.0,13.0,81,0.00,,,0.01,0,weatherlink.com 1.10,2013-05-11 03:46:00,